createdAt,value
2019-01-27T00:01:35.486Z,8.70
2019-01-27T00:04:06.210Z,14.65
2019-01-27T00:06:36.579Z,16.02
2019-01-27T00:09:10.352Z,46.23
2019-01-27T00:11:40.637Z,86.10
2019-01-27T00:14:10.952Z,67.65
2019-01-27T00:16:41.234Z,63.67
2019-01-27T00:19:11.522Z,51.08
2019-01-27T00:21:41.941Z,18.60
2019-01-27T00:24:12.205Z,11.08
2019-01-27T00:26:42.468Z,19.75
2019-01-27T00:29:12.803Z,19.40
2019-01-27T00:31:43.109Z,20.33
2019-01-27T00:34:13.438Z,13.00
2019-01-27T00:36:43.687Z,18.37
2019-01-27T00:39:14.115Z,21.93
2019-01-27T00:41:44.518Z,36.80
2019-01-27T00:44:14.781Z,53.90
2019-01-27T00:46:45.046Z,51.50
2019-01-27T00:49:15.359Z,52.03
2019-01-27T00:51:45.717Z,39.70
2019-01-27T00:54:16.130Z,37.03
2019-01-27T00:56:49.004Z,9.43
2019-01-27T00:59:20.327Z,8.48
2019-01-27T01:01:50.623Z,7.57
2019-01-27T01:04:21.420Z,6.60
2019-01-27T01:06:51.679Z,5.72
2019-01-27T01:09:21.973Z,4.60
2019-01-27T01:11:53.455Z,6.92
2019-01-27T01:14:23.871Z,5.95
2019-01-27T01:16:54.154Z,4.60
2019-01-27T01:19:24.402Z,6.80
2019-01-27T01:21:54.721Z,5.80
2019-01-27T01:24:25.000Z,5.55
2019-01-27T01:26:55.245Z,7.60
2019-01-27T01:29:25.602Z,4.80
2019-01-27T01:31:55.929Z,4.53
2019-01-27T01:34:26.181Z,4.70
2019-01-27T01:36:56.411Z,4.83
2019-01-27T01:39:26.974Z,4.55
2019-01-27T01:41:57.553Z,5.97
2019-01-27T01:44:27.914Z,5.60
2019-01-27T01:46:58.222Z,6.40
2019-01-27T01:49:28.509Z,5.58
2019-01-27T01:51:58.965Z,4.65
2019-01-27T01:54:31.031Z,5.65
2019-01-27T01:57:01.287Z,5.78
2019-01-27T01:59:31.528Z,5.10
2019-01-27T02:02:01.839Z,5.10
2019-01-27T02:04:32.101Z,4.83
2019-01-27T02:07:02.389Z,5.28
2019-01-27T02:09:32.748Z,4.85
2019-01-27T02:12:03.052Z,5.15
2019-01-27T02:14:33.303Z,4.70
2019-01-27T02:17:03.565Z,5.15
2019-01-27T02:19:33.819Z,4.33
2019-01-27T02:22:04.202Z,6.05
2019-01-27T02:24:34.457Z,4.70
2019-01-27T02:27:04.947Z,4.75
2019-01-27T02:29:35.198Z,4.40
2019-01-27T02:32:05.668Z,4.92
2019-01-27T02:34:35.879Z,4.90
2019-01-27T02:37:06.131Z,3.98
2019-01-27T02:39:36.494Z,5.12
2019-01-27T02:42:06.706Z,6.33
2019-01-27T02:44:36.940Z,3.60
2019-01-27T02:47:07.281Z,4.67
2019-01-27T02:49:37.519Z,4.80
2019-01-27T02:52:07.832Z,4.08
2019-01-27T02:54:38.099Z,5.28
2019-01-27T02:57:08.350Z,4.72
2019-01-27T02:59:38.611Z,8.18
2019-01-27T03:02:08.877Z,6.50
2019-01-27T03:04:39.124Z,4.50
2019-01-27T03:07:18.893Z,5.60
2019-01-27T03:09:49.320Z,6.85
2019-01-27T03:12:19.571Z,4.62
2019-01-27T03:14:49.835Z,5.08
2019-01-27T03:17:21.371Z,5.27
2019-01-27T03:19:51.624Z,4.95
2019-01-27T03:22:21.878Z,4.17
2019-01-27T03:24:52.130Z,5.10
2019-01-27T03:27:22.376Z,4.83
2019-01-27T03:29:52.622Z,4.90
2019-01-27T03:32:22.860Z,4.00
2019-01-27T03:34:53.182Z,5.00
2019-01-27T03:37:23.415Z,4.67
2019-01-27T03:39:53.653Z,4.28
2019-01-27T03:42:24.034Z,3.62
2019-01-27T03:44:54.292Z,4.72
2019-01-27T03:47:24.673Z,4.97
2019-01-27T03:49:54.901Z,4.42
2019-01-27T03:52:25.136Z,3.50
2019-01-27T03:54:55.394Z,4.00
2019-01-27T03:57:25.630Z,4.67
2019-01-27T03:59:55.855Z,4.05
2019-01-27T04:02:26.174Z,4.00
2019-01-27T04:04:56.413Z,3.22
2019-01-27T04:07:26.642Z,3.30
2019-01-27T04:09:56.888Z,3.55
2019-01-27T04:12:27.215Z,4.03
2019-01-27T04:14:57.475Z,4.03
2019-01-27T04:17:27.718Z,3.40
2019-01-27T04:19:57.962Z,5.17
2019-01-27T04:22:28.216Z,4.15
2019-01-27T04:24:58.488Z,3.70
2019-01-27T04:27:28.731Z,3.92
2019-01-27T04:29:58.973Z,4.35
2019-01-27T04:32:29.213Z,3.93
2019-01-27T04:34:59.469Z,4.58
2019-01-27T04:37:29.689Z,6.80
2019-01-27T04:39:59.972Z,4.75
2019-01-27T04:42:30.237Z,4.20
2019-01-27T04:45:00.505Z,3.70
2019-01-27T04:47:30.749Z,4.70
2019-01-27T04:50:01.014Z,5.08
2019-01-27T04:52:31.251Z,5.37
2019-01-27T04:55:01.497Z,3.95
2019-01-27T04:57:31.725Z,4.10
2019-01-27T05:00:01.993Z,3.10
2019-01-27T05:02:38.640Z,4.00
2019-01-27T05:05:10.039Z,3.58
2019-01-27T05:07:40.280Z,4.25
2019-01-27T05:10:10.650Z,4.00
2019-01-27T05:12:40.908Z,3.95
2019-01-27T05:15:13.155Z,5.35
2019-01-27T05:17:43.404Z,3.52
2019-01-27T05:20:13.663Z,5.20
2019-01-27T05:22:43.921Z,3.35
2019-01-27T05:25:14.894Z,3.67
2019-01-27T05:27:45.171Z,3.85
2019-01-27T05:30:20.129Z,3.33
2019-01-27T05:32:50.504Z,4.10
2019-01-27T05:35:20.743Z,3.42
2019-01-27T05:37:51.029Z,3.10
2019-01-27T05:40:21.343Z,5.17
2019-01-27T05:42:51.583Z,4.10
2019-01-27T05:45:21.833Z,2.95
2019-01-27T05:47:52.178Z,2.90
2019-01-27T05:50:22.634Z,2.37
2019-01-27T05:52:52.875Z,4.45
2019-01-27T05:55:23.161Z,4.00
2019-01-27T05:57:53.378Z,2.72
2019-01-27T06:00:32.094Z,2.40
2019-01-27T06:03:02.325Z,1.90
2019-01-27T06:05:32.548Z,1.80
2019-01-27T06:08:02.787Z,1.62
2019-01-27T06:10:33.064Z,1.90
2019-01-27T06:13:03.278Z,1.70
2019-01-27T06:15:33.504Z,1.50
2019-01-27T06:18:03.766Z,3.17
2019-01-27T06:20:34.018Z,2.98
2019-01-27T06:23:04.292Z,1.95
2019-01-27T06:25:34.545Z,1.90
2019-01-27T06:28:04.765Z,2.60
2019-01-27T06:30:35.043Z,1.93
2019-01-27T06:33:27.112Z,1.92
2019-01-27T06:35:57.365Z,1.75
2019-01-27T06:38:27.602Z,4.03
2019-01-27T06:40:57.846Z,1.35
2019-01-27T06:43:28.123Z,1.72
2019-01-27T06:45:58.375Z,1.50
2019-01-27T06:48:28.658Z,2.05
2019-01-27T06:50:58.901Z,1.65
2019-01-27T06:53:29.246Z,1.90
2019-01-27T06:55:59.673Z,2.08
2019-01-27T06:58:52.214Z,3.30
2019-01-27T07:01:43.999Z,3.85
2019-01-27T07:04:22.180Z,4.00
2019-01-27T07:07:17.594Z,4.40
2019-01-27T07:10:09.687Z,5.40
2019-01-27T07:12:58.098Z,2.35
2019-01-27T07:15:47.349Z,3.60
2019-01-27T07:18:30.462Z,3.85
2019-01-27T07:21:18.646Z,4.90
2019-01-27T07:24:07.925Z,4.47
2019-01-27T07:26:57.144Z,4.55
2019-01-27T07:30:01.858Z,6.40
2019-01-27T07:32:57.478Z,5.43
2019-01-27T07:35:49.626Z,5.62
2019-01-27T07:38:38.983Z,6.40
2019-01-27T07:41:31.329Z,4.83
2019-01-27T07:44:16.927Z,5.72
2019-01-27T07:46:56.451Z,4.17
2019-01-27T07:49:33.534Z,2.35
2019-01-27T07:52:20.123Z,2.20
2019-01-27T07:55:11.178Z,2.17
2019-01-27T07:58:00.610Z,2.70
2019-01-27T08:00:37.916Z,3.37
2019-01-27T08:03:27.847Z,2.35
2019-01-27T08:06:16.271Z,2.15
2019-01-27T08:09:14.987Z,1.80
2019-01-27T08:12:01.728Z,2.27
2019-01-27T08:14:44.082Z,2.27
2019-01-27T08:17:36.299Z,1.50
2019-01-27T08:20:23.857Z,1.95
2019-01-27T08:23:13.814Z,1.85
2019-01-27T08:26:06.157Z,2.90
2019-01-27T08:28:54.389Z,2.40
2019-01-27T08:31:49.951Z,3.00
2019-01-27T08:34:38.558Z,5.65
2019-01-27T08:37:20.782Z,4.70
2019-01-27T08:40:08.793Z,2.10
2019-01-27T08:42:51.670Z,3.90
2019-01-27T08:45:27.165Z,2.77
2019-01-27T08:47:57.533Z,2.87
2019-01-27T08:50:27.825Z,1.60
2019-01-27T08:52:58.407Z,3.83
2019-01-27T08:55:28.700Z,2.60
2019-01-27T08:57:58.971Z,2.75
2019-01-27T09:00:39.915Z,1.60
2019-01-27T09:03:18.834Z,1.92
2019-01-27T09:05:59.263Z,1.77
2019-01-27T09:08:51.758Z,2.62
2019-01-27T09:11:39.361Z,4.45
2019-01-27T09:14:31.907Z,1.80
2019-01-27T09:17:31.098Z,1.60
2019-01-27T09:20:19.214Z,2.00
2019-01-27T09:23:00.729Z,1.80
2019-01-27T09:25:50.121Z,2.17
2019-01-27T09:28:25.654Z,1.20
2019-01-27T09:31:07.931Z,1.67
2019-01-27T09:33:56.031Z,1.50
2019-01-27T09:37:03.877Z,1.75
2019-01-27T09:40:04.856Z,2.00
2019-01-27T09:42:53.326Z,1.07
2019-01-27T09:45:42.246Z,1.22
2019-01-27T09:48:37.506Z,1.80
2019-01-27T09:51:29.712Z,1.20
2019-01-27T09:54:31.131Z,2.65
2019-01-27T09:57:12.547Z,1.15
2019-01-27T09:59:58.834Z,1.65
2019-01-27T10:02:48.568Z,3.17
2019-01-27T10:05:36.835Z,2.95
2019-01-27T10:08:26.211Z,2.27
2019-01-27T10:11:14.468Z,2.70
2019-01-27T10:14:03.726Z,1.45
2019-01-27T10:16:56.201Z,1.20
2019-01-27T10:19:53.256Z,1.62
2019-01-27T10:22:37.000Z,2.35
2019-01-27T10:25:36.871Z,1.72
2019-01-27T10:28:14.264Z,2.15
2019-01-27T10:31:09.805Z,1.22
2019-01-27T10:34:02.220Z,1.10
2019-01-27T10:37:03.980Z,1.55
2019-01-27T10:39:56.253Z,1.40
2019-01-27T10:42:47.572Z,2.45
2019-01-27T10:45:36.321Z,2.02
2019-01-27T10:48:17.348Z,2.70
2019-01-27T10:51:03.596Z,1.00
2019-01-27T10:53:48.916Z,1.00
2019-01-27T10:56:27.401Z,2.10
2019-01-27T10:59:02.571Z,1.75
2019-01-27T11:01:54.948Z,1.23
2019-01-27T11:04:47.313Z,1.67
2019-01-27T11:07:39.622Z,1.55
2019-01-27T11:10:28.084Z,1.20
2019-01-27T11:13:10.971Z,1.10
2019-01-27T11:16:06.017Z,1.20
2019-01-27T11:18:53.981Z,1.60
2019-01-27T11:21:55.402Z,1.25
2019-01-27T11:24:38.270Z,0.80
2019-01-27T11:27:43.074Z,1.45
2019-01-27T11:30:40.293Z,0.85
2019-01-27T11:33:26.221Z,1.17
2019-01-27T11:36:15.578Z,1.85
2019-01-27T11:39:03.969Z,1.25
2019-01-27T11:41:52.524Z,1.77
2019-01-27T11:44:54.040Z,1.50
2019-01-27T11:47:34.160Z,2.93
2019-01-27T11:50:11.840Z,1.27
2019-01-27T11:52:46.326Z,1.35
2019-01-27T11:55:16.616Z,1.98
2019-01-27T11:57:46.978Z,1.62
2019-01-27T12:00:21.107Z,1.72
2019-01-27T12:02:51.898Z,1.45
2019-01-27T12:05:22.138Z,2.45
2019-01-27T12:07:52.480Z,2.30
2019-01-27T12:10:22.988Z,1.10
2019-01-27T12:12:53.280Z,5.55
2019-01-27T12:15:23.931Z,6.26
2019-01-27T12:17:54.426Z,3.20
2019-01-27T12:20:24.862Z,4.42
2019-01-27T12:22:55.892Z,3.60
2019-01-27T12:25:26.798Z,4.85
2019-01-27T12:27:58.879Z,5.08
2019-01-27T12:30:29.493Z,3.70
2019-01-27T12:33:01.276Z,1.52
2019-01-27T12:35:32.360Z,1.10
2019-01-27T12:38:02.961Z,1.72
2019-01-27T12:40:33.492Z,1.22
2019-01-27T12:43:04.307Z,3.50
2019-01-27T12:45:34.844Z,1.67
2019-01-27T12:48:06.140Z,1.82
2019-01-27T12:50:37.454Z,1.52
2019-01-27T12:53:08.687Z,2.20
2019-01-27T12:55:39.591Z,1.52
2019-01-27T12:58:09.983Z,2.08
2019-01-27T13:01:03.566Z,2.40
2019-01-27T13:03:33.862Z,1.40
2019-01-27T13:06:04.459Z,3.37
2019-01-27T13:08:34.697Z,2.20
2019-01-27T13:11:05.814Z,3.67
2019-01-27T13:13:36.968Z,0.90
2019-01-27T13:16:07.325Z,2.00
2019-01-27T13:18:37.637Z,2.15
2019-01-27T13:21:08.097Z,17.50
2019-01-27T13:23:38.498Z,3.87
2019-01-27T13:26:08.820Z,5.05
2019-01-27T13:28:39.743Z,6.30
2019-01-27T13:31:10.258Z,3.50
2019-01-27T13:33:40.915Z,3.45
2019-01-27T13:36:11.275Z,1.45
2019-01-27T13:38:41.794Z,0.98
2019-01-27T13:41:13.560Z,1.32
2019-01-27T13:43:43.910Z,1.47
2019-01-27T13:46:14.452Z,1.00
2019-01-27T13:48:45.160Z,0.90
2019-01-27T13:51:15.533Z,1.67
2019-01-27T13:53:45.901Z,0.70
2019-01-27T13:56:16.187Z,0.82
2019-01-27T13:58:46.919Z,1.05
2019-01-27T14:01:18.313Z,1.13
2019-01-27T14:03:48.622Z,0.80
2019-01-27T14:06:19.115Z,1.00
2019-01-27T14:08:49.444Z,1.15
2019-01-27T14:11:19.734Z,2.47
2019-01-27T14:13:50.134Z,1.00
2019-01-27T14:16:20.544Z,0.60
2019-01-27T14:18:50.816Z,2.15
2019-01-27T14:21:21.154Z,0.90
2019-01-27T14:23:51.460Z,1.85
2019-01-27T14:26:21.776Z,0.90
2019-01-27T14:28:52.108Z,1.52
2019-01-27T14:31:22.444Z,2.93
2019-01-27T14:33:52.738Z,1.67
2019-01-27T14:36:23.052Z,2.37
2019-01-27T14:38:53.312Z,1.82
2019-01-27T14:41:23.662Z,0.65
2019-01-27T14:43:54.004Z,1.50
2019-01-27T14:46:24.323Z,2.10
2019-01-27T14:48:54.629Z,0.90
2019-01-27T14:51:25.286Z,0.80
2019-01-27T14:53:55.619Z,0.75
2019-01-27T14:56:26.377Z,1.40
2019-01-27T14:58:57.011Z,1.75
2019-01-27T15:01:27.518Z,2.20
2019-01-27T15:03:57.920Z,1.50
2019-01-27T15:06:28.507Z,0.82
2019-01-27T15:08:58.882Z,1.55
2019-01-27T15:11:29.348Z,1.12
2019-01-27T15:14:00.067Z,1.80
2019-01-27T15:16:30.613Z,1.67
2019-01-27T15:19:01.239Z,0.90
2019-01-27T15:21:32.015Z,2.62
2019-01-27T15:24:02.289Z,1.72
2019-01-27T15:26:32.951Z,1.47
2019-01-27T15:29:03.981Z,8.05
2019-01-27T15:31:34.410Z,2.17
2019-01-27T15:34:05.183Z,1.52
2019-01-27T15:36:35.826Z,3.00
2019-01-27T15:39:10.566Z,1.30
2019-01-27T15:41:41.428Z,1.62
2019-01-27T15:44:11.777Z,2.60
2019-01-27T15:46:42.284Z,2.27
2019-01-27T15:49:12.569Z,2.35
2019-01-27T15:51:42.957Z,0.70
2019-01-27T15:54:13.236Z,1.95
2019-01-27T15:56:43.538Z,0.80
2019-01-27T15:59:14.005Z,1.60
2019-01-27T16:01:44.389Z,1.50
2019-01-27T16:04:14.852Z,1.85
2019-01-27T16:06:46.101Z,2.52
2019-01-27T16:09:16.777Z,2.40
2019-01-27T16:11:47.049Z,1.70
2019-01-27T16:14:17.796Z,1.17
2019-01-27T16:16:51.284Z,3.67
2019-01-27T16:19:21.648Z,6.15
2019-01-27T16:21:52.378Z,2.20
2019-01-27T16:24:29.834Z,2.35
2019-01-27T16:27:02.083Z,1.42
2019-01-27T16:29:50.348Z,1.40
2019-01-27T16:32:28.228Z,3.67
2019-01-27T16:35:02.599Z,1.22
2019-01-27T16:37:32.905Z,4.80
2019-01-27T16:40:03.409Z,2.60
2019-01-27T16:42:34.287Z,4.12
2019-01-27T16:45:06.571Z,1.30
2019-01-27T16:47:36.987Z,1.13
2019-01-27T16:50:10.695Z,1.55
2019-01-27T16:52:42.214Z,2.35
2019-01-27T16:55:14.337Z,1.45
2019-01-27T16:57:44.740Z,2.10
2019-01-27T17:00:20.217Z,1.95
2019-01-27T17:02:50.881Z,1.45
2019-01-27T17:05:21.233Z,4.25
2019-01-27T17:07:51.813Z,3.52
2019-01-27T17:10:22.386Z,2.50
2019-01-27T17:12:56.434Z,3.22
2019-01-27T17:15:27.244Z,2.72
2019-01-27T17:17:57.644Z,4.05
2019-01-27T17:20:28.037Z,11.75
2019-01-27T17:22:58.453Z,9.95
2019-01-27T17:25:28.817Z,9.35
2019-01-27T17:27:59.083Z,4.70
2019-01-27T17:30:29.630Z,2.80
2019-01-27T17:32:59.899Z,1.85
2019-01-27T17:35:30.340Z,2.92
2019-01-27T17:38:00.670Z,1.77
2019-01-27T17:40:31.932Z,1.10
2019-01-27T17:43:02.244Z,1.52
2019-01-27T17:45:32.528Z,1.47
2019-01-27T17:48:02.909Z,1.47
2019-01-27T17:50:33.264Z,1.00
2019-01-27T17:53:03.859Z,2.92
2019-01-27T17:55:38.912Z,1.30
2019-01-27T17:58:31.761Z,2.85
2019-01-27T18:01:20.000Z,1.90
2019-01-27T18:04:08.315Z,2.70
2019-01-27T18:06:52.210Z,2.30
2019-01-27T18:09:33.454Z,2.67
2019-01-27T18:12:10.173Z,1.50
2019-01-27T18:14:41.924Z,2.27
2019-01-27T18:17:12.234Z,1.43
2019-01-27T18:19:42.590Z,2.37
2019-01-27T18:22:12.888Z,2.08
2019-01-27T18:24:43.158Z,2.40
2019-01-27T18:27:13.518Z,2.37
2019-01-27T18:29:43.921Z,4.40
2019-01-27T18:32:14.228Z,7.57
2019-01-27T18:34:44.775Z,3.62
2019-01-27T18:37:15.073Z,2.40
2019-01-27T18:39:45.402Z,3.58
2019-01-27T18:42:16.868Z,4.87
2019-01-27T18:44:47.187Z,5.12
2019-01-27T18:47:17.576Z,6.40
2019-01-27T18:49:47.907Z,5.97
2019-01-27T18:52:18.389Z,4.33
2019-01-27T18:55:05.830Z,3.30
2019-01-27T18:57:54.058Z,3.92
2019-01-27T19:00:30.439Z,3.40
2019-01-27T19:03:09.324Z,3.15
2019-01-27T19:05:52.211Z,2.58
2019-01-27T19:08:40.232Z,3.92
2019-01-27T19:11:47.648Z,3.35
2019-01-27T19:14:31.987Z,3.95
2019-01-27T19:17:15.158Z,4.60
2019-01-27T19:20:11.705Z,4.17
2019-01-27T19:23:03.022Z,5.40
2019-01-27T19:25:42.565Z,4.25
2019-01-27T19:28:35.798Z,7.83
2019-01-27T19:31:12.207Z,9.23
2019-01-27T19:33:55.715Z,4.37
2019-01-27T19:36:44.987Z,4.95
2019-01-27T19:39:33.070Z,4.40
2019-01-27T19:42:09.497Z,4.35
2019-01-27T19:44:54.003Z,5.28
2019-01-27T19:47:54.198Z,5.23
2019-01-27T19:50:42.705Z,6.05
2019-01-27T19:53:42.445Z,2.33
2019-01-27T19:56:37.723Z,4.53
2019-01-27T19:59:17.605Z,4.15
2019-01-27T20:02:13.285Z,2.87
2019-01-27T20:04:53.625Z,4.10
2019-01-27T20:07:41.677Z,2.37
2019-01-27T20:10:29.667Z,3.75
2019-01-27T20:13:08.637Z,4.15
2019-01-27T20:15:50.220Z,3.87
2019-01-27T20:18:48.661Z,4.20
2019-01-27T20:21:27.200Z,6.12
2019-01-27T20:24:17.182Z,9.85
2019-01-27T20:27:19.121Z,5.83
2019-01-27T20:30:26.646Z,4.30
2019-01-27T20:33:23.679Z,1.98
2019-01-27T20:36:01.770Z,4.33
2019-01-27T20:38:42.222Z,2.85
2019-01-27T20:41:25.589Z,1.90
2019-01-27T20:44:14.453Z,2.35
2019-01-27T20:47:03.255Z,2.40
2019-01-27T20:49:58.358Z,5.67
2019-01-27T20:52:57.033Z,5.40
2019-01-27T20:55:45.359Z,6.03
2019-01-27T20:58:26.311Z,3.70
2019-01-27T21:01:26.178Z,3.02
2019-01-27T21:04:12.985Z,2.02
2019-01-27T21:06:55.159Z,2.65
2019-01-27T21:09:50.602Z,2.22
2019-01-27T21:12:40.241Z,1.80
2019-01-27T21:15:27.643Z,1.45
2019-01-27T21:18:06.635Z,1.35
2019-01-27T21:20:37.080Z,1.95
2019-01-27T21:23:07.429Z,2.95
2019-01-27T21:25:37.796Z,2.20
2019-01-27T21:28:08.372Z,3.65
2019-01-27T21:30:38.694Z,3.37
2019-01-27T21:33:09.120Z,2.40
2019-01-27T21:35:41.939Z,1.67
2019-01-27T21:38:12.314Z,2.30
2019-01-27T21:40:42.685Z,3.72
2019-01-27T21:43:13.047Z,2.22
2019-01-27T21:45:43.568Z,2.97
2019-01-27T21:48:13.898Z,2.30
2019-01-27T21:50:44.226Z,1.57
2019-01-27T21:53:14.525Z,1.67
2019-01-27T21:55:46.019Z,1.25
2019-01-27T21:58:16.367Z,3.92
2019-01-27T22:00:46.787Z,4.10
2019-01-27T22:03:17.171Z,2.50
2019-01-27T22:05:47.627Z,1.15
2019-01-27T22:08:17.970Z,1.75
2019-01-27T22:10:48.348Z,2.02
2019-01-27T22:13:18.677Z,1.10
2019-01-27T22:15:48.998Z,2.10
2019-01-27T22:18:19.261Z,1.65
2019-01-27T22:20:50.524Z,1.20
2019-01-27T22:23:21.104Z,1.42
2019-01-27T22:25:51.814Z,1.67
2019-01-27T22:28:22.103Z,1.75
2019-01-27T22:30:52.445Z,0.80
2019-01-27T22:33:22.792Z,1.55
2019-01-27T22:35:53.183Z,2.00
2019-01-27T22:38:23.441Z,1.10
2019-01-27T22:40:53.676Z,1.10
2019-01-27T22:43:24.007Z,1.30
2019-01-27T22:45:54.270Z,1.30
2019-01-27T22:48:24.560Z,0.90
2019-01-27T22:50:54.887Z,1.30
2019-01-27T22:53:25.162Z,1.12
2019-01-27T22:55:55.427Z,1.20
2019-01-27T22:58:25.670Z,1.00
2019-01-27T23:01:04.190Z,1.00
2019-01-27T23:03:40.163Z,1.00
2019-01-27T23:06:10.672Z,1.17
2019-01-27T23:08:40.876Z,1.32
2019-01-27T23:11:11.127Z,2.00
2019-01-27T23:13:42.644Z,0.80
2019-01-27T23:16:12.892Z,1.50
2019-01-27T23:18:43.162Z,1.65
2019-01-27T23:21:13.452Z,1.00
2019-01-27T23:23:43.709Z,1.32
2019-01-27T23:26:14.007Z,1.20
2019-01-27T23:28:44.240Z,1.25
2019-01-27T23:31:14.504Z,1.22
2019-01-27T23:33:44.760Z,1.27
2019-01-27T23:36:15.036Z,1.40
2019-01-27T23:38:45.250Z,1.62
2019-01-27T23:41:15.513Z,1.25
2019-01-27T23:43:45.758Z,2.17
2019-01-27T23:46:15.998Z,1.23
2019-01-27T23:48:46.261Z,1.15
2019-01-27T23:51:16.530Z,1.07
2019-01-27T23:53:46.800Z,1.10
2019-01-27T23:56:17.037Z,1.15
2019-01-27T23:58:47.278Z,1.32
